createdAt,value
2022-08-20T00:02:30.228Z,5.20
2022-08-20T00:05:39.694Z,4.22
2022-08-20T00:08:42.885Z,4.30
2022-08-20T00:11:45.156Z,5.78
2022-08-20T00:14:47.383Z,5.18
2022-08-20T00:17:50.720Z,4.40
2022-08-20T00:20:55.249Z,4.82
2022-08-20T00:23:57.617Z,4.85
2022-08-20T00:26:59.875Z,4.50
2022-08-20T00:30:04.870Z,5.10
2022-08-20T00:33:14.415Z,4.90
2022-08-20T00:36:17.645Z,5.15
2022-08-20T00:39:19.870Z,5.30
2022-08-20T00:42:22.205Z,4.75
2022-08-20T00:45:28.271Z,4.30
2022-08-20T00:48:32.933Z,4.78
2022-08-20T00:51:39.960Z,4.60
2022-08-20T00:54:52.561Z,4.60
2022-08-20T00:58:01.209Z,4.72
2022-08-20T01:01:05.818Z,4.68
2022-08-20T01:04:08.234Z,5.53
2022-08-20T01:07:10.854Z,4.22
2022-08-20T01:10:19.401Z,4.68
2022-08-20T01:13:23.805Z,4.20
2022-08-20T01:16:29.449Z,4.97
2022-08-20T01:19:39.794Z,4.12
2022-08-20T01:23:28.082Z,4.53
2022-08-20T01:26:40.387Z,4.72
2022-08-20T01:29:42.666Z,4.55
2022-08-20T01:32:44.872Z,4.50
2022-08-20T01:35:47.227Z,5.18
2022-08-20T01:38:53.122Z,3.85
2022-08-20T01:42:08.644Z,4.15
2022-08-20T01:45:11.160Z,4.28
2022-08-20T01:48:14.236Z,5.25
2022-08-20T01:51:25.915Z,3.90
2022-08-20T01:54:28.553Z,3.65
2022-08-20T01:57:30.803Z,3.70
2022-08-20T02:00:34.971Z,4.05
2022-08-20T02:03:40.774Z,3.72
2022-08-20T02:06:57.194Z,4.68
2022-08-20T02:10:00.390Z,4.87
2022-08-20T02:13:03.026Z,4.00
2022-08-20T02:16:06.142Z,3.60
2022-08-20T02:19:15.032Z,4.15
2022-08-20T02:22:27.576Z,4.15
2022-08-20T02:25:32.714Z,3.72
2022-08-20T02:28:34.987Z,4.10
2022-08-20T02:31:37.949Z,3.60
2022-08-20T02:35:02.365Z,4.20
2022-08-20T02:38:04.951Z,4.05
2022-08-20T02:41:08.467Z,4.53
2022-08-20T02:44:11.096Z,4.28
2022-08-20T02:47:13.362Z,3.95
2022-08-20T02:50:18.632Z,4.18
2022-08-20T02:53:21.430Z,3.47
2022-08-20T02:56:23.676Z,4.55
2022-08-20T02:59:25.916Z,3.70
2022-08-20T03:02:28.505Z,3.75
2022-08-20T03:05:30.857Z,3.42
2022-08-20T03:08:33.885Z,3.60
2022-08-20T03:11:36.526Z,3.50
2022-08-20T03:14:38.874Z,3.92
2022-08-20T03:17:41.109Z,4.25
2022-08-20T03:20:46.030Z,3.50
2022-08-20T03:23:48.468Z,3.78
2022-08-20T03:26:50.702Z,3.70
2022-08-20T03:29:52.921Z,3.58
2022-08-20T03:32:55.512Z,3.85
2022-08-20T03:35:58.263Z,3.08
2022-08-20T03:39:02.475Z,4.43
2022-08-20T03:42:05.198Z,4.35
2022-08-20T03:45:08.952Z,4.10
2022-08-20T03:48:15.934Z,4.50
2022-08-20T03:51:18.113Z,4.30
2022-08-20T03:54:20.378Z,3.83
2022-08-20T03:57:22.668Z,4.40
2022-08-20T04:00:31.891Z,4.00
2022-08-20T04:03:35.081Z,4.50
2022-08-20T04:06:37.306Z,3.78
2022-08-20T04:09:41.280Z,3.70
2022-08-20T04:12:48.803Z,3.50
2022-08-20T04:15:55.609Z,4.28
2022-08-20T04:19:02.440Z,4.10
2022-08-20T04:22:05.801Z,3.70
2022-08-20T04:25:12.154Z,4.70
2022-08-20T04:28:30.219Z,3.83
2022-08-20T04:31:35.250Z,3.12
2022-08-20T04:34:37.435Z,4.68
2022-08-20T04:37:39.681Z,3.75
2022-08-20T04:40:54.066Z,3.22
2022-08-20T04:43:58.182Z,3.60
2022-08-20T04:47:01.829Z,4.15
2022-08-20T04:50:04.647Z,3.20
2022-08-20T04:53:09.469Z,3.78
2022-08-20T04:56:12.578Z,3.10
2022-08-20T04:59:15.083Z,3.85
2022-08-20T05:02:18.479Z,4.00
2022-08-20T05:05:22.456Z,3.17
2022-08-20T05:08:26.061Z,3.67
2022-08-20T05:11:35.854Z,3.10
2022-08-20T05:14:39.091Z,3.95
2022-08-20T05:17:43.011Z,3.08
2022-08-20T05:20:46.501Z,3.60
2022-08-20T05:23:49.393Z,3.35
2022-08-20T05:26:52.124Z,3.87
2022-08-20T05:30:10.239Z,4.03
2022-08-20T05:33:19.008Z,3.17
2022-08-20T05:36:22.148Z,3.65
2022-08-20T05:39:24.454Z,3.10
2022-08-20T05:42:29.202Z,3.10
2022-08-20T05:45:37.488Z,3.20
2022-08-20T05:48:39.733Z,5.55
2022-08-20T05:51:42.256Z,3.33
2022-08-20T05:54:44.511Z,3.40
2022-08-20T05:57:46.847Z,4.50
2022-08-20T06:00:49.853Z,3.35
2022-08-20T06:04:10.838Z,3.45
2022-08-20T06:07:13.114Z,3.33
2022-08-20T06:10:15.378Z,4.12
2022-08-20T06:13:17.592Z,3.50
2022-08-20T06:16:19.920Z,3.72
2022-08-20T06:19:26.164Z,3.97
2022-08-20T06:22:28.807Z,3.45
2022-08-20T06:25:36.092Z,4.40
2022-08-20T06:28:40.053Z,3.28
2022-08-20T06:31:42.330Z,4.20
2022-08-20T06:34:50.624Z,4.80
2022-08-20T06:37:53.603Z,4.85
2022-08-20T06:40:55.821Z,3.70
2022-08-20T06:43:58.056Z,3.22
2022-08-20T06:47:02.048Z,3.40
2022-08-20T06:50:08.850Z,3.42
2022-08-20T06:53:13.608Z,2.95
2022-08-20T06:56:16.641Z,3.65
2022-08-20T06:59:18.848Z,3.83
2022-08-20T07:02:21.134Z,3.72
2022-08-20T07:05:34.277Z,3.10
2022-08-20T07:08:36.558Z,3.22
2022-08-20T07:11:38.793Z,3.00
2022-08-20T07:14:41.336Z,3.37
2022-08-20T07:18:01.143Z,2.80
2022-08-20T07:21:04.237Z,3.10
2022-08-20T07:24:06.841Z,3.12
2022-08-20T07:27:09.076Z,2.80
2022-08-20T07:30:34.148Z,3.65
2022-08-20T07:33:56.402Z,3.08
2022-08-20T07:37:00.607Z,3.42
2022-08-20T07:40:03.066Z,3.15
2022-08-20T07:43:05.319Z,3.78
2022-08-20T07:46:09.091Z,3.03
2022-08-20T07:49:11.404Z,4.43
2022-08-20T07:52:13.768Z,2.90
2022-08-20T07:55:16.538Z,3.62
2022-08-20T07:58:21.404Z,3.03
2022-08-20T08:01:31.346Z,3.58
2022-08-20T08:04:34.070Z,3.50
2022-08-20T08:07:36.850Z,3.45
2022-08-20T08:10:41.714Z,2.85
2022-08-20T08:13:44.418Z,2.87
2022-08-20T08:16:46.744Z,3.83
2022-08-20T08:19:50.312Z,3.17
2022-08-20T08:22:53.864Z,4.00
2022-08-20T08:25:56.097Z,3.10
2022-08-20T08:28:58.614Z,3.20
2022-08-20T08:32:02.228Z,3.42
2022-08-20T08:35:07.602Z,3.12
2022-08-20T08:38:09.838Z,3.10
2022-08-20T08:41:21.651Z,4.05
2022-08-20T08:44:27.295Z,3.80
2022-08-20T08:47:34.732Z,3.85
2022-08-20T08:50:53.377Z,4.10
2022-08-20T08:53:57.124Z,6.43
2022-08-20T08:57:00.264Z,5.18
2022-08-20T09:00:10.032Z,3.35
2022-08-20T09:03:18.600Z,4.90
2022-08-20T09:06:23.992Z,3.28
2022-08-20T09:09:31.320Z,3.03
2022-08-20T09:12:33.570Z,3.25
2022-08-20T09:15:35.799Z,3.22
2022-08-20T09:18:38.387Z,3.00
2022-08-20T09:21:40.578Z,3.03
2022-08-20T09:24:43.700Z,2.45
2022-08-20T09:27:46.121Z,2.45
2022-08-20T09:30:50.677Z,3.15
2022-08-20T09:33:54.092Z,2.90
2022-08-20T09:36:56.346Z,3.08
2022-08-20T09:39:59.487Z,3.37
2022-08-20T09:43:03.586Z,3.33
2022-08-20T09:46:06.025Z,4.55
2022-08-20T09:49:08.920Z,3.85
2022-08-20T09:52:31.622Z,3.62
2022-08-20T09:55:39.639Z,3.60
2022-08-20T09:58:48.819Z,3.87
2022-08-20T10:01:53.897Z,3.72
2022-08-20T10:04:56.175Z,4.15
2022-08-20T10:07:59.821Z,3.80
2022-08-20T10:11:02.177Z,3.37
2022-08-20T10:14:04.519Z,4.07
2022-08-20T10:17:08.705Z,3.50
2022-08-20T10:20:13.304Z,3.45
2022-08-20T10:23:15.716Z,3.47
2022-08-20T10:26:18.049Z,3.60
2022-08-20T10:29:20.261Z,3.90
2022-08-20T10:32:22.542Z,3.75
2022-08-20T10:35:24.864Z,3.40
2022-08-20T10:38:29.793Z,3.03
2022-08-20T10:41:31.991Z,3.05
2022-08-20T10:44:34.305Z,2.97
2022-08-20T10:47:36.713Z,2.75
2022-08-20T10:50:38.991Z,3.35
2022-08-20T10:53:41.228Z,3.05
2022-08-20T10:56:43.532Z,2.87
2022-08-20T10:59:47.790Z,3.12
2022-08-20T11:02:50.206Z,2.90
2022-08-20T11:05:52.607Z,2.60
2022-08-20T11:08:56.990Z,3.00
2022-08-20T11:11:59.458Z,3.70
2022-08-20T11:15:01.745Z,3.03
2022-08-20T11:18:04.585Z,2.62
2022-08-20T11:21:06.979Z,2.80
2022-08-20T11:24:11.053Z,4.20
2022-08-20T11:27:23.704Z,3.70
2022-08-20T11:30:30.462Z,3.60
2022-08-20T11:33:32.682Z,3.42
2022-08-20T11:36:35.293Z,3.62
2022-08-20T11:39:41.577Z,3.65
2022-08-20T11:43:04.349Z,4.07
2022-08-20T11:46:06.405Z,4.20
2022-08-20T11:49:11.650Z,3.37
2022-08-20T11:52:14.242Z,3.45
2022-08-20T11:55:18.041Z,2.67
2022-08-20T11:58:20.459Z,3.30
2022-08-20T12:01:22.737Z,2.92
2022-08-20T12:04:25.237Z,2.75
2022-08-20T12:07:29.225Z,2.75
2022-08-20T12:10:31.925Z,2.37
2022-08-20T12:13:48.502Z,2.85
2022-08-20T12:16:51.310Z,2.30
2022-08-20T12:19:55.698Z,2.58
2022-08-20T12:22:59.005Z,2.85
2022-08-20T12:26:03.327Z,2.30
2022-08-20T12:29:05.647Z,2.87
2022-08-20T12:32:08.813Z,2.30
2022-08-20T12:35:12.975Z,2.75
2022-08-20T12:38:15.212Z,2.10
2022-08-20T12:41:17.411Z,2.33
2022-08-20T12:44:19.610Z,3.05
2022-08-20T12:47:33.623Z,2.78
2022-08-20T12:50:37.471Z,2.17
2022-08-20T12:53:40.061Z,2.80
2022-08-20T12:56:42.324Z,2.60
2022-08-20T12:59:44.571Z,2.78
2022-08-20T13:02:46.855Z,2.85
2022-08-20T13:05:50.842Z,2.45
2022-08-20T13:08:53.094Z,3.00
2022-08-20T13:11:55.320Z,3.08
2022-08-20T13:14:57.554Z,3.35
2022-08-20T13:18:01.844Z,2.97
2022-08-20T13:21:04.128Z,3.40
2022-08-20T13:24:06.460Z,3.03
2022-08-20T13:27:17.760Z,2.65
2022-08-20T13:30:20.346Z,2.42
2022-08-20T13:33:22.663Z,3.42
2022-08-20T13:36:25.955Z,2.72
2022-08-20T13:39:28.220Z,2.30
2022-08-20T13:42:30.550Z,2.70
2022-08-20T13:45:32.930Z,2.70
2022-08-20T13:48:35.336Z,3.00
2022-08-20T13:51:37.556Z,2.83
2022-08-20T13:54:39.989Z,2.28
2022-08-20T13:57:44.871Z,2.08
2022-08-20T14:00:47.185Z,2.00
2022-08-20T14:03:49.409Z,2.72
2022-08-20T14:06:51.873Z,2.10
2022-08-20T14:09:59.827Z,2.45
2022-08-20T14:13:03.558Z,2.20
2022-08-20T14:16:05.954Z,2.30
2022-08-20T14:19:23.768Z,2.62
2022-08-20T14:22:26.465Z,2.62
2022-08-20T14:25:30.691Z,2.90
2022-08-20T14:28:32.889Z,2.60
2022-08-20T14:31:35.088Z,2.40
2022-08-20T14:34:37.916Z,2.60
2022-08-20T14:37:46.422Z,2.40
2022-08-20T14:40:50.488Z,2.45
2022-08-20T14:43:52.988Z,2.55
2022-08-20T14:46:55.823Z,3.15
2022-08-20T14:50:02.544Z,3.62
2022-08-20T14:53:07.636Z,2.35
2022-08-20T14:56:09.852Z,2.40
2022-08-20T14:59:12.105Z,2.65
2022-08-20T15:02:16.158Z,2.60
2022-08-20T15:05:19.090Z,2.65
2022-08-20T15:08:21.588Z,2.78
2022-08-20T15:11:34.164Z,2.50
2022-08-20T15:14:39.311Z,2.30
2022-08-20T15:17:50.797Z,3.00
2022-08-20T15:20:53.036Z,2.58
2022-08-20T15:23:55.269Z,2.15
2022-08-20T15:26:57.575Z,2.37
2022-08-20T15:29:59.863Z,2.85
2022-08-20T15:33:02.996Z,2.35
2022-08-20T15:36:06.867Z,2.78
2022-08-20T15:39:09.106Z,2.83
2022-08-20T15:42:12.968Z,2.65
2022-08-20T15:45:21.973Z,2.25
2022-08-20T15:48:33.359Z,1.80
2022-08-20T15:54:41.099Z,3.58
2022-08-20T15:57:54.997Z,3.45
2022-08-20T16:01:42.874Z,2.47
2022-08-20T16:04:57.600Z,2.28
2022-08-20T16:08:11.756Z,2.87
2022-08-20T16:11:35.622Z,2.28
2022-08-20T16:14:43.966Z,2.00
2022-08-20T16:17:49.717Z,2.60
2022-08-20T16:20:54.395Z,2.33
2022-08-20T16:23:57.605Z,1.95
2022-08-20T16:27:27.614Z,2.15
2022-08-20T16:30:35.481Z,2.80
2022-08-20T16:33:55.063Z,2.33
2022-08-20T16:37:27.761Z,2.87
2022-08-20T16:40:57.091Z,2.62
2022-08-20T16:44:04.236Z,2.30
2022-08-20T16:47:22.789Z,2.95
2022-08-20T16:50:35.418Z,2.92
2022-08-20T16:53:37.714Z,2.92
2022-08-20T16:56:46.149Z,2.40
2022-08-20T16:59:59.100Z,3.20
2022-08-20T17:03:33.583Z,2.40
2022-08-20T17:06:48.355Z,3.00
2022-08-20T17:09:52.690Z,3.25
2022-08-20T17:13:02.840Z,3.30
2022-08-20T17:16:06.700Z,3.10
2022-08-20T17:19:31.964Z,2.58
2022-08-20T17:22:43.265Z,2.90
2022-08-20T17:25:55.880Z,2.42
2022-08-20T17:29:05.960Z,2.92
2022-08-20T17:32:09.384Z,2.75
2022-08-20T17:35:24.574Z,2.37
2022-08-20T17:38:32.976Z,2.50
2022-08-20T17:41:36.138Z,3.33
2022-08-20T17:44:46.002Z,2.92
2022-08-20T17:47:48.877Z,3.30
2022-08-20T17:50:52.493Z,2.92
2022-08-20T17:54:02.609Z,3.40
2022-08-20T17:57:10.237Z,2.90
2022-08-20T18:00:17.973Z,2.80
2022-08-20T18:03:23.927Z,3.83
2022-08-20T18:07:01.872Z,3.05
2022-08-20T18:10:12.256Z,3.35
2022-08-20T18:13:19.207Z,4.12
2022-08-20T18:16:37.175Z,2.90
2022-08-20T18:19:54.521Z,3.30
2022-08-20T18:23:10.768Z,4.07
2022-08-20T18:26:31.825Z,3.42
2022-08-20T18:32:38.801Z,5.60
2022-08-20T18:35:45.962Z,5.53
2022-08-20T18:39:00.543Z,5.00
2022-08-20T18:42:06.858Z,5.40
2022-08-20T18:45:09.247Z,4.62
2022-08-20T18:48:21.243Z,4.60
2022-08-20T18:51:29.429Z,4.20
2022-08-20T18:54:32.927Z,3.97
2022-08-20T18:57:41.862Z,4.35
2022-08-20T19:00:49.731Z,4.00
2022-08-20T19:03:55.688Z,3.67
2022-08-20T19:07:02.064Z,3.75
2022-08-20T19:10:39.772Z,3.65
2022-08-20T19:13:54.320Z,3.75
2022-08-20T19:17:02.607Z,3.75
2022-08-20T19:20:19.153Z,3.53
2022-08-20T19:23:24.157Z,3.47
2022-08-20T19:26:30.772Z,3.85
2022-08-20T19:29:36.997Z,3.30
2022-08-20T19:32:45.475Z,3.92
2022-08-20T19:35:49.557Z,3.33
2022-08-20T19:38:55.155Z,4.00
2022-08-20T19:42:14.234Z,3.45
2022-08-20T19:45:27.831Z,3.80
2022-08-20T19:48:45.175Z,4.57
2022-08-20T19:52:01.911Z,3.37
2022-08-20T19:55:04.974Z,4.07
2022-08-20T19:58:20.202Z,3.20
2022-08-20T20:01:29.074Z,3.40
2022-08-20T20:04:55.293Z,4.32
2022-08-20T20:07:58.624Z,3.75
2022-08-20T20:11:00.909Z,3.60
2022-08-20T20:14:11.596Z,4.50
2022-08-20T20:17:23.091Z,4.50
2022-08-20T20:20:28.938Z,3.60
2022-08-20T20:23:41.678Z,4.03
2022-08-20T20:26:49.706Z,4.05
2022-08-20T20:29:59.800Z,4.57
2022-08-20T20:33:13.269Z,3.90
2022-08-20T20:36:41.581Z,3.55
2022-08-20T20:39:47.101Z,3.35
2022-08-20T20:43:07.782Z,3.42
2022-08-20T20:46:14.552Z,3.30
2022-08-20T20:49:27.599Z,3.87
2022-08-20T20:52:33.127Z,4.32
2022-08-20T20:55:37.404Z,4.00
2022-08-20T20:58:39.612Z,4.30
2022-08-20T21:01:48.869Z,3.90
2022-08-20T21:04:52.260Z,3.97
2022-08-20T21:08:00.064Z,3.72
2022-08-20T21:11:02.860Z,3.72
2022-08-20T21:14:05.161Z,4.85
2022-08-20T21:17:09.786Z,3.90
2022-08-20T21:20:12.362Z,4.03
2022-08-20T21:23:14.683Z,4.10
2022-08-20T21:26:16.940Z,3.70
2022-08-20T21:29:32.505Z,3.87
2022-08-20T21:32:35.301Z,4.72
2022-08-20T21:35:38.922Z,3.75
2022-08-20T21:38:41.175Z,4.18
2022-08-20T21:41:43.790Z,3.72
2022-08-20T21:44:49.477Z,4.10
2022-08-20T21:47:52.423Z,4.65
2022-08-20T21:50:54.685Z,4.78
2022-08-20T21:53:56.948Z,5.07
2022-08-20T21:57:03.405Z,4.32
2022-08-20T22:00:12.987Z,4.15
2022-08-20T22:03:16.161Z,3.67
2022-08-20T22:06:18.679Z,3.85
2022-08-20T22:09:20.952Z,5.45
2022-08-20T22:12:24.485Z,4.03
2022-08-20T22:15:26.794Z,4.32
2022-08-20T22:18:29.197Z,3.45
2022-08-20T22:21:33.687Z,4.45
2022-08-20T22:24:35.905Z,3.58
2022-08-20T22:27:38.244Z,3.67
2022-08-20T22:30:42.510Z,3.90
2022-08-20T22:33:44.971Z,3.90
2022-08-20T22:36:47.979Z,4.20
2022-08-20T22:39:50.261Z,3.67
2022-08-20T22:42:52.917Z,4.80
2022-08-20T22:45:58.178Z,3.85
2022-08-20T22:49:00.508Z,3.55
2022-08-20T22:52:02.962Z,3.62
2022-08-20T22:55:06.539Z,3.45
2022-08-20T22:58:08.834Z,3.75
2022-08-20T23:01:12.830Z,3.80
2022-08-20T23:04:24.439Z,3.67
2022-08-20T23:07:26.679Z,4.00
2022-08-20T23:10:31.931Z,3.60
2022-08-20T23:13:34.190Z,4.22
2022-08-20T23:16:39.163Z,3.78
2022-08-20T23:19:41.966Z,4.30
2022-08-20T23:22:44.877Z,3.87
2022-08-20T23:25:47.485Z,4.47
2022-08-20T23:28:49.885Z,4.07
2022-08-20T23:31:52.380Z,3.72
2022-08-20T23:34:54.569Z,4.32
2022-08-20T23:37:57.817Z,3.58
2022-08-20T23:41:00.052Z,3.47
2022-08-20T23:44:02.281Z,4.10
2022-08-20T23:47:04.728Z,3.75
2022-08-20T23:50:09.345Z,3.67
2022-08-20T23:53:11.874Z,3.35
2022-08-20T23:56:14.108Z,3.70
2022-08-20T23:59:16.689Z,3.22
